createdAt,value
2022-11-18T00:02:13.914Z,2.40
2022-11-18T00:05:02.375Z,2.07
2022-11-18T00:07:50.722Z,2.17
2022-11-18T00:10:39.485Z,2.53
2022-11-18T00:13:45.520Z,1.93
2022-11-18T00:16:35.250Z,3.00
2022-11-18T00:19:25.192Z,3.43
2022-11-18T00:22:14.682Z,2.20
2022-11-18T00:25:03.051Z,3.97
2022-11-18T00:27:51.498Z,2.60
2022-11-18T00:30:39.836Z,3.33
2022-11-18T00:33:29.583Z,5.33
2022-11-18T00:36:17.975Z,2.97
2022-11-18T00:39:06.406Z,2.20
2022-11-18T00:42:12.550Z,1.60
2022-11-18T00:45:00.926Z,1.90
2022-11-18T00:47:49.319Z,2.80
2022-11-18T00:50:39.066Z,6.23
2022-11-18T00:53:28.138Z,1.77
2022-11-18T00:56:16.562Z,1.83
2022-11-18T00:59:04.966Z,1.80
2022-11-18T01:01:54.585Z,3.60
2022-11-18T01:04:43.030Z,4.10
2022-11-18T01:07:32.807Z,3.43
2022-11-18T01:10:21.299Z,2.63
2022-11-18T01:13:21.588Z,2.33
2022-11-18T01:16:09.993Z,2.37
2022-11-18T01:18:58.452Z,2.53
2022-11-18T01:21:46.856Z,2.13
2022-11-18T01:24:36.693Z,3.03
2022-11-18T01:27:25.082Z,3.23
2022-11-18T01:30:16.881Z,2.17
2022-11-18T01:33:05.921Z,2.63
2022-11-18T01:35:54.302Z,4.57
2022-11-18T01:38:42.713Z,3.73
2022-11-18T01:41:32.466Z,3.67
2022-11-18T01:45:02.099Z,3.27
2022-11-18T01:47:53.239Z,3.00
2022-11-18T01:50:44.877Z,5.70
2022-11-18T01:53:35.668Z,2.67
2022-11-18T01:56:27.872Z,4.77
2022-11-18T01:59:20.529Z,4.07
2022-11-18T02:02:12.046Z,3.50
2022-11-18T02:05:00.439Z,4.30
2022-11-18T02:07:48.888Z,4.50
2022-11-18T02:10:37.323Z,5.67
2022-11-18T02:13:25.767Z,4.03
2022-11-18T02:16:16.843Z,2.30
2022-11-18T02:19:10.194Z,6.43
2022-11-18T02:22:03.378Z,3.10
2022-11-18T02:24:56.941Z,5.00
2022-11-18T02:28:01.841Z,3.20
2022-11-18T02:30:54.981Z,3.50
2022-11-18T02:33:48.496Z,5.97
2022-11-18T02:36:41.664Z,3.77
2022-11-18T02:39:34.152Z,6.00
2022-11-18T02:42:22.545Z,3.27
2022-11-18T02:45:15.238Z,2.73
2022-11-18T02:48:07.395Z,4.83
2022-11-18T02:50:55.758Z,9.27
2022-11-18T02:53:44.148Z,7.83
2022-11-18T02:56:32.562Z,3.37
2022-11-18T02:59:21.440Z,4.10
2022-11-18T03:02:11.454Z,4.83
2022-11-18T03:05:01.253Z,4.07
2022-11-18T03:07:52.477Z,4.53
2022-11-18T03:10:46.694Z,5.13
2022-11-18T03:13:39.230Z,5.53
2022-11-18T03:16:30.808Z,3.13
2022-11-18T03:19:23.238Z,3.93
2022-11-18T03:22:18.820Z,6.70
2022-11-18T03:25:09.566Z,2.63
2022-11-18T03:28:01.700Z,2.80
2022-11-18T03:30:54.606Z,5.33
2022-11-18T03:33:46.235Z,4.10
2022-11-18T03:36:37.231Z,5.43
2022-11-18T03:39:27.019Z,6.30
2022-11-18T03:42:17.963Z,3.27
2022-11-18T03:45:10.687Z,3.47
2022-11-18T03:48:01.760Z,3.60
2022-11-18T03:50:52.688Z,3.50
2022-11-18T03:53:44.199Z,3.23
2022-11-18T03:56:36.892Z,4.00
2022-11-18T03:59:27.658Z,3.27
2022-11-18T04:02:17.182Z,2.83
2022-11-18T04:05:07.379Z,4.07
2022-11-18T04:07:57.906Z,3.87
2022-11-18T04:10:50.223Z,2.67
2022-11-18T04:13:39.971Z,3.07
2022-11-18T04:16:28.369Z,3.90
2022-11-18T04:19:16.740Z,3.17
2022-11-18T04:22:05.242Z,4.93
2022-11-18T04:24:53.648Z,3.27
2022-11-18T04:27:42.062Z,2.50
2022-11-18T04:30:31.882Z,3.27
2022-11-18T04:33:20.296Z,3.80
2022-11-18T04:36:09.428Z,4.43
2022-11-18T04:38:57.937Z,2.97
2022-11-18T04:41:58.349Z,4.70
2022-11-18T04:44:46.732Z,3.83
2022-11-18T04:47:36.699Z,3.40
2022-11-18T04:50:25.099Z,3.67
2022-11-18T04:53:13.523Z,5.17
2022-11-18T04:56:06.962Z,5.07
2022-11-18T04:58:55.360Z,4.80
2022-11-18T05:01:43.762Z,5.73
2022-11-18T05:04:34.719Z,7.17
2022-11-18T05:07:23.115Z,5.50
2022-11-18T05:10:11.602Z,7.17
2022-11-18T05:12:59.094Z,6.80
2022-11-18T05:15:47.512Z,7.07
2022-11-18T05:18:36.360Z,7.20
2022-11-18T05:21:26.058Z,7.87
2022-11-18T05:24:14.528Z,6.97
2022-11-18T05:27:02.890Z,7.20
2022-11-18T05:29:51.324Z,6.13
2022-11-18T05:32:39.743Z,6.63
2022-11-18T05:35:28.112Z,6.40
2022-11-18T05:38:17.831Z,6.77
2022-11-18T05:41:06.782Z,7.83
2022-11-18T05:43:54.194Z,7.53
2022-11-18T05:46:42.595Z,6.23
2022-11-18T05:49:30.958Z,5.80
2022-11-18T05:52:19.546Z,6.13
2022-11-18T05:55:10.136Z,4.17
2022-11-18T05:57:58.566Z,3.80
2022-11-18T06:00:47.347Z,3.50
2022-11-18T06:03:37.939Z,3.23
2022-11-18T06:06:26.328Z,5.73
2022-11-18T06:09:14.880Z,2.60
2022-11-18T06:12:05.573Z,3.00
2022-11-18T06:14:56.112Z,2.13
2022-11-18T06:17:47.049Z,3.37
2022-11-18T06:20:35.561Z,3.73
2022-11-18T06:23:23.988Z,2.13
2022-11-18T06:26:14.474Z,2.03
2022-11-18T06:29:04.325Z,1.60
2022-11-18T06:31:52.772Z,3.10
2022-11-18T06:34:42.077Z,3.00
2022-11-18T06:37:30.832Z,3.27
2022-11-18T06:40:19.592Z,2.07
2022-11-18T06:43:25.503Z,1.63
2022-11-18T06:46:34.479Z,1.20
2022-11-18T06:49:22.957Z,1.40
2022-11-18T06:52:11.367Z,1.90
2022-11-18T06:54:59.847Z,1.70
2022-11-18T06:57:48.253Z,1.43
2022-11-18T07:00:36.826Z,2.23
2022-11-18T07:03:26.615Z,2.97
2022-11-18T07:05:54.749Z,24.97
2022-11-18T07:08:22.909Z,4.27
2022-11-18T07:10:53.852Z,2.33
2022-11-18T07:13:21.985Z,1.87
2022-11-18T07:15:50.053Z,5.23
2022-11-18T07:18:18.227Z,7.27
2022-11-18T07:20:47.710Z,2.53
2022-11-18T07:23:15.805Z,2.67
2022-11-18T07:25:45.351Z,1.83
2022-11-18T07:28:13.608Z,2.53
2022-11-18T07:30:41.786Z,2.00
2022-11-18T07:33:09.957Z,2.20
2022-11-18T07:35:38.204Z,2.87
2022-11-18T07:38:07.646Z,3.20
2022-11-18T07:40:35.897Z,2.17
2022-11-18T07:43:04.014Z,4.10
2022-11-18T07:45:32.162Z,1.63
2022-11-18T07:48:00.321Z,1.53
2022-11-18T07:50:28.434Z,2.63
2022-11-18T07:52:57.429Z,2.60
2022-11-18T07:55:31.871Z,2.87
2022-11-18T07:58:00.359Z,3.33
2022-11-18T08:00:28.603Z,1.60
2022-11-18T08:02:56.741Z,2.47
2022-11-18T08:05:25.374Z,2.10
2022-11-18T08:07:53.524Z,2.37
2022-11-18T08:10:21.683Z,4.70
2022-11-18T08:12:51.132Z,3.10
2022-11-18T08:15:19.220Z,4.20
2022-11-18T08:17:48.078Z,2.80
2022-11-18T08:20:16.412Z,3.80
2022-11-18T08:22:44.559Z,3.87
2022-11-18T08:25:12.688Z,3.23
2022-11-18T08:27:40.817Z,3.93
2022-11-18T08:30:12.544Z,6.73
2022-11-18T08:32:40.663Z,2.13
2022-11-18T08:35:11.219Z,3.77
2022-11-18T08:37:39.694Z,2.50
2022-11-18T08:40:09.507Z,2.13
2022-11-18T08:42:38.466Z,2.53
2022-11-18T08:45:08.766Z,2.50
2022-11-18T08:47:38.456Z,2.20
2022-11-18T08:50:07.720Z,2.83
2022-11-18T08:52:35.811Z,6.87
2022-11-18T08:55:04.280Z,2.30
2022-11-18T08:57:32.718Z,2.87
2022-11-18T09:00:00.912Z,1.50
2022-11-18T09:02:29.080Z,1.87
2022-11-18T09:04:58.583Z,2.43
2022-11-18T09:07:26.850Z,2.07
2022-11-18T09:09:55.024Z,1.60
2022-11-18T09:12:23.118Z,2.20
2022-11-18T09:15:12.958Z,2.43
2022-11-18T09:17:39.548Z,1.90
2022-11-18T09:20:10.957Z,2.90
2022-11-18T09:22:40.055Z,3.27
2022-11-18T09:25:09.743Z,1.93
2022-11-18T09:27:37.919Z,1.60
2022-11-18T09:30:07.385Z,2.43
2022-11-18T09:32:35.546Z,2.03
2022-11-18T09:35:03.735Z,4.00
2022-11-18T09:37:34.398Z,2.20
2022-11-18T09:40:02.483Z,2.70
2022-11-18T09:42:43.100Z,3.27
2022-11-18T09:45:24.003Z,2.70
2022-11-18T09:47:52.900Z,5.00
2022-11-18T09:53:19.118Z,3.70
2022-11-18T09:55:47.483Z,2.30
2022-11-18T09:58:19.203Z,7.23
2022-11-18T10:00:47.319Z,2.30
2022-11-18T10:03:18.628Z,2.80
2022-11-18T10:05:49.466Z,3.10
2022-11-18T10:08:23.630Z,3.03
2022-11-18T10:10:57.376Z,2.67
2022-11-18T10:13:37.390Z,4.03
2022-11-18T10:16:16.762Z,2.87
2022-11-18T10:19:04.577Z,2.53
2022-11-18T10:21:43.304Z,2.70
2022-11-18T10:24:16.859Z,3.57
2022-11-18T10:26:45.212Z,3.63
2022-11-18T10:29:13.340Z,3.40
2022-11-18T10:31:53.218Z,2.60
2022-11-18T10:34:21.529Z,3.37
2022-11-18T10:37:00.767Z,2.60
2022-11-18T10:39:30.212Z,15.60
2022-11-18T10:42:02.169Z,8.80
2022-11-18T10:44:38.704Z,3.47
2022-11-18T10:47:22.946Z,6.20
2022-11-18T10:49:51.128Z,4.43
2022-11-18T10:52:19.337Z,3.03
2022-11-18T10:55:09.872Z,6.80
2022-11-18T10:57:43.325Z,7.57
2022-11-18T11:00:41.186Z,5.07
2022-11-18T11:03:28.178Z,4.87
2022-11-18T11:06:32.355Z,3.80
2022-11-18T11:09:07.200Z,3.33
2022-11-18T11:11:39.864Z,3.60
2022-11-18T11:14:16.538Z,3.70
2022-11-18T11:16:51.766Z,3.20
2022-11-18T11:19:22.945Z,3.50
2022-11-18T11:21:51.756Z,4.87
2022-11-18T11:24:20.103Z,3.77
2022-11-18T11:30:12.854Z,4.33
2022-11-18T11:33:05.781Z,4.13
2022-11-18T11:35:36.140Z,3.70
2022-11-18T11:38:08.356Z,4.27
2022-11-18T11:40:51.516Z,5.13
2022-11-18T11:43:30.921Z,4.13
2022-11-18T11:46:15.056Z,4.47
2022-11-18T11:48:54.367Z,5.90
2022-11-18T11:51:29.178Z,3.50
2022-11-18T11:54:36.742Z,4.57
2022-11-18T11:57:06.683Z,6.23
2022-11-18T11:59:44.522Z,5.57
2022-11-18T12:02:49.607Z,3.77
2022-11-18T12:05:23.222Z,5.77
2022-11-18T12:07:55.067Z,4.60
2022-11-18T12:10:34.069Z,3.80
2022-11-18T12:13:13.545Z,5.50
2022-11-18T12:15:50.647Z,4.30
2022-11-18T12:18:22.166Z,4.80
2022-11-18T12:20:52.316Z,4.93
2022-11-18T12:23:22.269Z,3.50
2022-11-18T12:26:09.549Z,7.90
2022-11-18T12:28:41.114Z,5.03
2022-11-18T12:31:38.073Z,4.67
2022-11-18T12:34:40.914Z,3.73
2022-11-18T12:37:44.995Z,5.70
2022-11-18T12:40:38.288Z,4.50
2022-11-18T12:43:24.466Z,4.37
2022-11-18T12:45:56.963Z,5.23
2022-11-18T12:48:43.441Z,6.97
2022-11-18T12:51:41.705Z,23.20
2022-11-18T12:54:28.778Z,5.37
2022-11-18T12:56:58.696Z,6.97
2022-11-18T12:59:32.478Z,12.27
2022-11-18T13:02:19.053Z,37.43
2022-11-18T13:05:07.307Z,23.37
2022-11-18T13:07:59.954Z,20.57
2022-11-18T13:10:30.830Z,34.50
2022-11-18T13:12:59.510Z,11.63
2022-11-18T13:15:45.396Z,14.23
2022-11-18T13:18:16.640Z,6.37
2022-11-18T13:20:55.531Z,4.13
2022-11-18T13:24:03.405Z,2.77
2022-11-18T13:26:33.128Z,2.70
2022-11-18T13:29:26.662Z,3.80
2022-11-18T13:32:04.747Z,2.73
2022-11-18T13:34:33.106Z,2.53
2022-11-18T13:37:02.577Z,3.90
2022-11-18T13:39:32.877Z,3.83
2022-11-18T13:42:02.659Z,2.23
2022-11-18T13:44:32.087Z,2.47
2022-11-18T13:47:06.264Z,2.90
2022-11-18T13:49:50.332Z,2.40
2022-11-18T13:52:24.977Z,3.00
2022-11-18T13:54:53.596Z,2.03
2022-11-18T13:57:22.966Z,2.60
2022-11-18T13:59:51.086Z,2.40
2022-11-18T14:02:19.655Z,1.90
2022-11-18T14:04:54.384Z,4.33
2022-11-18T14:07:30.311Z,2.67
2022-11-18T14:10:00.461Z,3.93
2022-11-18T14:12:29.915Z,3.30
2022-11-18T14:15:20.520Z,2.77
2022-11-18T14:17:56.433Z,4.13
2022-11-18T14:20:24.846Z,3.90
2022-11-18T14:22:56.272Z,4.17
2022-11-18T14:25:28.321Z,2.17
2022-11-18T14:27:56.723Z,2.00
2022-11-18T14:30:28.317Z,4.87
2022-11-18T14:33:18.648Z,3.27
2022-11-18T14:35:50.698Z,2.00
2022-11-18T14:38:38.445Z,3.03
2022-11-18T14:41:12.931Z,3.30
2022-11-18T14:43:41.536Z,2.93
2022-11-18T14:46:15.832Z,3.70
2022-11-18T14:48:43.985Z,6.07
2022-11-18T14:51:14.661Z,3.50
2022-11-18T14:53:44.725Z,3.77
2022-11-18T14:56:23.684Z,3.87
2022-11-18T14:58:51.789Z,3.73
2022-11-18T15:01:19.974Z,4.03
2022-11-18T15:03:48.168Z,2.87
2022-11-18T15:06:16.593Z,6.23
2022-11-18T15:08:49.259Z,3.73
2022-11-18T15:11:19.064Z,4.10
2022-11-18T15:13:47.339Z,3.90
2022-11-18T15:16:16.666Z,2.80
2022-11-18T15:18:45.712Z,4.13
2022-11-18T15:21:13.912Z,4.27
2022-11-18T15:23:42.001Z,4.30
2022-11-18T15:26:19.882Z,2.73
2022-11-18T15:28:48.434Z,2.90
2022-11-18T15:31:17.901Z,2.93
2022-11-18T15:33:46.335Z,2.23
2022-11-18T15:36:15.398Z,5.13
2022-11-18T15:38:43.597Z,3.43
2022-11-18T15:41:17.368Z,4.90
2022-11-18T15:43:45.846Z,5.43
2022-11-18T15:46:14.126Z,4.63
2022-11-18T15:48:42.536Z,4.00
2022-11-18T15:51:12.255Z,3.73
2022-11-18T15:53:40.694Z,3.97
2022-11-18T15:56:17.830Z,5.80
2022-11-18T15:58:46.002Z,5.97
2022-11-18T16:01:14.176Z,4.90
2022-11-18T16:03:42.505Z,6.17
2022-11-18T16:06:10.716Z,6.80
2022-11-18T16:08:38.876Z,3.33
2022-11-18T16:11:24.600Z,6.03
2022-11-18T16:13:54.412Z,4.80
2022-11-18T16:16:22.855Z,4.37
2022-11-18T16:18:51.334Z,6.43
2022-11-18T16:21:19.475Z,4.10
2022-11-18T16:23:47.702Z,6.77
2022-11-18T16:26:17.341Z,3.93
2022-11-18T16:28:45.770Z,5.97
2022-11-18T16:31:32.730Z,5.13
2022-11-18T16:34:00.814Z,4.07
2022-11-18T16:36:29.063Z,7.57
2022-11-18T16:38:58.019Z,6.90
2022-11-18T16:41:32.238Z,6.37
2022-11-18T16:44:00.645Z,5.73
2022-11-18T16:46:31.083Z,5.37
2022-11-18T16:48:59.334Z,8.40
2022-11-18T16:51:28.408Z,6.77
2022-11-18T16:53:57.850Z,4.23
2022-11-18T16:56:27.525Z,5.43
2022-11-18T16:58:59.408Z,5.13
2022-11-18T17:01:29.813Z,5.33
2022-11-18T17:04:00.389Z,8.30
2022-11-18T17:06:29.031Z,7.57
2022-11-18T17:08:57.255Z,5.13
2022-11-18T17:11:25.487Z,9.40
2022-11-18T17:13:57.904Z,7.07
2022-11-18T17:16:27.071Z,5.40
2022-11-18T17:18:57.457Z,5.40
2022-11-18T17:21:25.876Z,3.87
2022-11-18T17:23:54.000Z,3.40
2022-11-18T17:26:23.980Z,3.73
2022-11-18T17:28:52.165Z,6.23
2022-11-18T17:31:21.454Z,5.57
2022-11-18T17:33:50.239Z,4.60
2022-11-18T17:36:21.863Z,4.50
2022-11-18T17:38:51.306Z,5.77
2022-11-18T17:41:38.682Z,5.03
2022-11-18T17:44:08.050Z,20.53
2022-11-18T17:46:38.292Z,15.97
2022-11-18T17:49:07.919Z,19.13
2022-11-18T17:51:37.439Z,14.97
2022-11-18T17:54:06.232Z,11.37
2022-11-18T17:56:34.432Z,8.33
2022-11-18T17:59:02.669Z,7.43
2022-11-18T18:01:30.992Z,4.47
2022-11-18T18:03:59.215Z,6.57
2022-11-18T18:06:27.812Z,4.40
2022-11-18T18:09:00.363Z,3.13
2022-11-18T18:11:29.086Z,3.70
2022-11-18T18:14:14.549Z,4.90
2022-11-18T18:16:44.733Z,4.57
2022-11-18T18:19:14.109Z,7.50
2022-11-18T18:21:42.294Z,4.60
2022-11-18T18:24:12.091Z,6.77
2022-11-18T18:26:40.269Z,6.60
2022-11-18T18:29:08.395Z,6.57
2022-11-18T18:31:37.236Z,6.13
2022-11-18T18:34:05.638Z,4.03
2022-11-18T18:36:33.998Z,9.93
2022-11-18T18:39:02.500Z,7.00
2022-11-18T18:41:32.356Z,5.77
2022-11-18T18:44:00.698Z,7.63
2022-11-18T18:46:34.535Z,8.70
2022-11-18T18:49:04.670Z,7.23
2022-11-18T18:51:35.760Z,8.50
2022-11-18T18:54:04.075Z,7.73
2022-11-18T18:56:33.659Z,20.83
2022-11-18T18:59:01.887Z,8.30
2022-11-18T19:01:30.158Z,7.17
2022-11-18T19:03:59.630Z,8.63
2022-11-18T19:09:17.363Z,10.97
2022-11-18T19:12:04.481Z,7.63
2022-11-18T19:14:33.898Z,6.77
2022-11-18T19:17:09.180Z,11.03
2022-11-18T19:19:56.225Z,9.60
2022-11-18T19:22:24.376Z,8.83
2022-11-18T19:24:53.396Z,8.50
2022-11-18T19:27:23.470Z,8.10
2022-11-18T19:29:51.605Z,9.73
2022-11-18T19:32:19.719Z,8.47
2022-11-18T19:34:47.819Z,6.23
2022-11-18T19:37:15.934Z,9.33
2022-11-18T19:39:44.078Z,6.57
2022-11-18T19:42:12.181Z,6.60
2022-11-18T19:44:41.656Z,16.23
2022-11-18T19:47:09.815Z,12.73
2022-11-18T19:49:37.980Z,10.20
2022-11-18T19:52:06.190Z,7.63
2022-11-18T19:54:34.311Z,6.50
2022-11-18T19:57:03.793Z,10.67
2022-11-18T19:59:32.024Z,7.30
2022-11-18T20:02:01.704Z,10.43
2022-11-18T20:04:30.339Z,7.07
2022-11-18T20:06:58.459Z,8.37
2022-11-18T20:09:26.644Z,11.73
2022-11-18T20:11:55.866Z,7.77
2022-11-18T20:14:23.960Z,7.17
2022-11-18T20:16:52.577Z,8.83
2022-11-18T20:19:22.409Z,9.47
2022-11-18T20:21:50.786Z,7.50
2022-11-18T20:24:19.599Z,7.20
2022-11-18T20:26:48.563Z,7.27
2022-11-18T20:29:17.002Z,8.47
2022-11-18T20:31:45.625Z,5.87
2022-11-18T20:34:14.172Z,9.87
2022-11-18T20:36:43.704Z,8.50
2022-11-18T20:39:14.467Z,7.80
2022-11-18T20:41:42.716Z,6.20
2022-11-18T20:44:10.805Z,8.43
2022-11-18T20:46:38.992Z,8.73
2022-11-18T20:49:07.163Z,6.23
2022-11-18T20:51:35.425Z,5.50
2022-11-18T20:54:09.111Z,6.00
2022-11-18T20:56:37.421Z,6.60
2022-11-18T20:59:05.595Z,6.67
2022-11-18T21:01:33.944Z,6.07
2022-11-18T21:04:20.849Z,8.67
2022-11-18T21:07:09.306Z,9.03
2022-11-18T21:09:59.068Z,10.20
2022-11-18T21:13:01.431Z,7.90
2022-11-18T21:15:49.817Z,6.23
2022-11-18T21:18:38.204Z,5.93
2022-11-18T21:21:44.161Z,5.13
2022-11-18T21:24:34.108Z,5.63
2022-11-18T21:27:23.817Z,7.67
2022-11-18T21:30:13.651Z,6.67
2022-11-18T21:33:02.014Z,7.10
2022-11-18T21:35:50.409Z,5.30
2022-11-18T21:38:38.773Z,9.00
2022-11-18T21:41:27.247Z,5.30
2022-11-18T21:44:17.129Z,5.87
2022-11-18T21:47:05.642Z,6.97
2022-11-18T21:49:54.023Z,8.13
2022-11-18T21:52:42.395Z,8.90
2022-11-18T21:55:30.886Z,9.20
2022-11-18T21:58:19.390Z,8.17
2022-11-18T22:01:10.171Z,6.77
2022-11-18T22:03:59.613Z,6.13
2022-11-18T22:06:47.971Z,8.60
2022-11-18T22:09:37.162Z,6.50
2022-11-18T22:12:25.649Z,8.50
2022-11-18T22:15:14.072Z,6.73
2022-11-18T22:18:03.829Z,4.40
2022-11-18T22:20:52.201Z,5.20
2022-11-18T22:23:40.575Z,6.43
2022-11-18T22:26:29.296Z,6.73
2022-11-18T22:29:17.982Z,5.43
2022-11-18T22:32:06.638Z,4.43
2022-11-18T22:34:56.356Z,4.73
2022-11-18T22:37:44.730Z,5.43
2022-11-18T22:40:33.119Z,5.83
2022-11-18T22:43:20.530Z,7.57
2022-11-18T22:46:09.288Z,8.87
2022-11-18T22:48:57.804Z,7.37
2022-11-18T22:51:47.506Z,7.80
2022-11-18T22:54:40.103Z,6.97
2022-11-18T22:57:34.057Z,7.57
2022-11-18T23:00:22.596Z,9.03
2022-11-18T23:03:11.007Z,11.27
2022-11-18T23:05:59.807Z,8.83
2022-11-18T23:08:49.554Z,8.67
2022-11-18T23:11:55.405Z,7.30
2022-11-18T23:14:43.817Z,8.80
2022-11-18T23:17:32.203Z,8.27
2022-11-18T23:20:20.634Z,7.03
2022-11-18T23:23:09.053Z,8.17
2022-11-18T23:26:04.692Z,7.63
2022-11-18T23:28:53.094Z,6.97
2022-11-18T23:31:42.818Z,8.37
2022-11-18T23:34:31.302Z,9.73
2022-11-18T23:37:19.674Z,8.23
2022-11-18T23:40:10.127Z,10.03
2022-11-18T23:42:59.845Z,8.23
2022-11-18T23:45:48.268Z,6.43
2022-11-18T23:48:38.257Z,7.20
2022-11-18T23:51:27.029Z,9.53
2022-11-18T23:54:15.431Z,6.53
2022-11-18T23:57:05.328Z,7.00
2022-11-18T23:59:55.085Z,6.67
